Time;durP1;ratioP1;P1;durP2;ratioP2;P2;SDS_P1;SDS_P2;PMS_P1;PMS_P2;Temp;Humidity;BMP_temperature;BMP_pressure;BME280_temperature;BME280_humidity;BME280_pressure;Samples;Min_cycle;Max_cycle;Signal;HPM_P1;HPM_P2
2023/08/22 00:00:32;;;;;;;14.40;13.20;;;;;;;24.16;83.59;98748.14;105521;1256;61080;-86
2023/08/22 00:02:59;;;;;;;15.70;14.20;;;;;;;24.14;83.45;98750.69;105554;1256;61158;-87
2023/08/22 00:05:27;;;;;;;15.90;14.70;;;;;;;24.11;83.56;98750.10;105468;1256;72779;-86
2023/08/22 00:07:54;;;;;;;15.60;14.20;;;;;;;24.08;83.53;98750.33;105562;1256;74203;-86
2023/08/22 00:10:21;;;;;;;14.10;12.90;;;;;;;24.05;83.37;98748.29;105478;1256;73083;-85
2023/08/22 00:12:48;;;;;;;15.20;13.80;;;;;;;24.03;83.23;98745.80;105441;1256;61181;-84
2023/08/22 00:15:15;;;;;;;13.00;11.90;;;;;;;24.00;83.09;98747.19;105981;1258;61051;-86
2023/08/22 00:17:43;;;;;;;13.40;12.20;;;;;;;23.98;82.93;98744.54;106142;1258;73569;-86
2023/08/22 00:20:13;;;;;;;13.10;11.80;;;;;;;23.97;82.98;98742.86;105601;1256;72385;-86
2023/08/22 00:22:41;;;;;;;15.50;13.90;;;;;;;23.95;83.00;98740.85;105554;1256;73013;-86
2023/08/22 00:25:09;;;;;;;16.90;15.50;;;;;;;23.94;83.57;98740.05;105514;1259;61160;-86
2023/08/22 00:27:36;;;;;;;14.20;12.90;;;;;;;23.92;83.83;98740.21;105482;1255;61105;-86
2023/08/22 00:30:05;;;;;;;13.40;12.40;;;;;;;23.88;84.13;98738.66;105647;1256;72216;-88
2023/08/22 00:32:32;;;;;;;12.60;11.50;;;;;;;23.85;83.81;98742.28;105455;1255;74578;-86
2023/08/22 00:35:00;;;;;;;12.80;11.80;;;;;;;23.83;83.72;98740.45;105488;1256;71934;-85
2023/08/22 00:37:28;;;;;;;13.10;11.90;;;;;;;23.83;83.70;98739.26;105449;1256;61145;-86
2023/08/22 00:39:55;;;;;;;13.80;12.30;;;;;;;23.81;83.68;98739.23;105577;1258;61159;-87
2023/08/22 00:42:22;;;;;;;15.50;14.30;;;;;;;23.80;83.96;98737.65;105531;1256;73773;-85
2023/08/22 00:44:49;;;;;;;12.50;11.50;;;;;;;23.79;84.01;98740.17;105495;1256;74260;-85
2023/08/22 00:47:17;;;;;;;12.90;11.80;;;;;;;23.78;84.09;98741.73;105459;1256;71751;-86
2023/08/22 00:49:44;;;;;;;14.70;12.70;;;;;;;23.78;84.28;98739.20;105512;1255;61769;-87
2023/08/22 00:52:11;;;;;;;13.30;12.20;;;;;;;23.78;84.48;98742.80;105364;1256;61184;-86
2023/08/22 00:54:38;;;;;;;13.00;11.80;;;;;;;23.79;84.44;98742.90;105565;1256;73908;-86
2023/08/22 00:57:05;;;;;;;12.60;11.70;;;;;;;23.81;84.38;98743.92;105569;1256;73295;-87
2023/08/22 00:59:32;;;;;;;12.50;11.50;;;;;;;23.84;84.26;98748.41;105639;1256;72267;-86
2023/08/22 01:01:59;;;;;;;12.80;11.50;;;;;;;23.87;84.06;98744.93;105554;1259;61474;-86
2023/08/22 01:04:26;;;;;;;11.60;10.50;;;;;;;23.90;83.99;98741.86;105549;1255;61165;-86
2023/08/22 01:07:11;;;;;;;11.80;10.80;;;;;;;23.92;83.78;98737.19;105510;1258;74814;-86
2023/08/22 01:10:11;;;;;;;12.30;11.10;;;;;;;23.95;83.44;98736.88;105603;1257;75795;-86
2023/08/22 01:12:59;;;;;;;12.90;11.10;;;;;;;23.95;83.39;98735.61;105098;1262;71655;-86
2023/08/22 01:15:28;;;;;;;11.60;10.50;;;;;;;23.95;83.40;98738.87;105129;1259;61123;-86
2023/08/22 01:17:56;;;;;;;11.50;10.30;;;;;;;23.95;83.38;98739.17;105185;1261;61327;-86
2023/08/22 01:20:26;;;;;;;10.80;9.80;;;;;;;23.97;83.37;98746.80;105287;1264;74012;-87
2023/08/22 01:22:54;;;;;;;11.40;10.30;;;;;;;23.99;83.24;98746.00;105242;1259;74495;-86
2023/08/22 01:25:22;;;;;;;11.40;10.40;;;;;;;24.01;83.24;98738.50;105228;1259;71660;-86
2023/08/22 01:27:58;;;;;;;11.20;10.40;;;;;;;24.03;83.08;98734.20;105107;1265;61920;-86
2023/08/22 01:30:35;;;;;;;12.70;11.40;;;;;;;24.06;82.98;98732.64;105282;1263;61187;-86
2023/08/22 01:33:10;;;;;;;12.90;11.90;;;;;;;24.07;83.26;98728.69;105265;1263;73553;-84
2023/08/22 01:35:37;;;;;;;13.50;12.30;;;;;;;24.07;83.43;98725.70;105269;1259;73691;-87
2023/08/22 01:38:04;;;;;;;12.50;11.50;;;;;;;24.08;83.35;98726.27;105279;1259;71868;-86
2023/08/22 01:40:32;;;;;;;13.40;12.30;;;;;;;24.09;83.32;98723.87;105105;1260;61275;-86
2023/08/22 01:42:59;;;;;;;12.50;11.50;;;;;;;24.08;83.39;98725.92;105261;1264;61217;-86
2023/08/22 01:45:26;;;;;;;12.40;11.30;;;;;;;24.07;83.32;98723.47;105267;1264;74949;-87
2023/08/22 01:47:53;;;;;;;12.80;11.50;;;;;;;24.08;83.53;98716.09;105203;1260;72440;-86
2023/08/22 01:50:20;;;;;;;12.80;11.80;;;;;;;24.10;83.48;98716.25;105529;1259;72675;-86
2023/08/22 01:52:47;;;;;;;13.10;11.80;;;;;;;24.10;83.62;98716.52;105434;1257;61470;-89
2023/08/22 01:55:15;;;;;;;13.10;12.00;;;;;;;24.11;83.58;98721.20;105590;1256;61168;-87
2023/08/22 01:57:44;;;;;;;13.20;12.00;;;;;;;24.10;83.60;98722.96;105571;1258;73548;-87
2023/08/22 02:00:12;;;;;;;12.70;11.70;;;;;;;24.08;83.77;98725.21;105502;1259;74410;-87
2023/08/22 02:02:39;;;;;;;12.60;11.60;;;;;;;24.06;84.01;98722.32;105451;1257;71374;-87
2023/08/22 02:05:06;;;;;;;13.30;11.90;;;;;;;24.06;84.15;98724.24;105652;1256;61044;-86
2023/08/22 02:07:35;;;;;;;11.90;10.90;;;;;;;24.05;84.18;98725.59;105456;1261;61177;-87
2023/08/22 02:10:06;;;;;;;13.70;12.30;;;;;;;24.04;84.37;98727.16;105719;1256;73995;-86
2023/08/22 02:12:33;;;;;;;13.30;12.00;;;;;;;24.03;84.39;98727.44;105399;1256;74047;-87
2023/08/22 02:15:00;;;;;;;12.90;11.60;;;;;;;24.02;84.42;98728.90;105694;1261;71933;-85
2023/08/22 02:17:27;;;;;;;10.90;10.10;;;;;;;24.01;84.45;98732.16;105565;1256;61011;-86
2023/08/22 02:19:56;;;;;;;12.70;11.70;;;;;;;23.99;84.57;98736.02;105451;1256;61136;-84
2023/08/22 02:22:23;;;;;;;12.30;11.20;;;;;;;23.97;84.67;98735.83;105424;1260;72321;-85
2023/08/22 02:24:50;;;;;;;13.90;12.40;;;;;;;23.96;84.78;98737.11;105754;1258;75356;-87
2023/08/22 02:27:17;;;;;;;12.50;11.40;;;;;;;23.94;84.85;98744.48;105457;1261;72297;-84
2023/08/22 02:29:44;;;;;;;11.90;10.90;;;;;;;23.93;85.01;98729.84;105382;1256;61559;-86
2023/08/22 02:32:11;;;;;;;11.00;10.00;;;;;;;23.89;84.87;98722.02;105454;1255;61079;-86
2023/08/22 02:34:40;;;;;;;11.30;10.20;;;;;;;23.86;84.62;98719.33;105446;1259;73787;-87
2023/08/22 02:37:07;;;;;;;11.50;10.40;;;;;;;23.80;84.66;98717.23;105416;1262;75386;-86
2023/08/22 02:39:34;;;;;;;12.10;10.70;;;;;;;23.75;84.80;98720.68;105713;1256;72734;-87
2023/08/22 02:42:01;;;;;;;11.50;10.60;;;;;;;23.71;84.94;98720.23;105559;1259;61163;-85
2023/08/22 02:44:28;;;;;;;12.20;11.10;;;;;;;23.68;84.88;98724.11;105680;1259;61144;-88
2023/08/22 02:46:55;;;;;;;12.10;10.80;;;;;;;23.64;84.83;98727.94;105567;1256;73694;-86
2023/08/22 02:49:22;;;;;;;14.50;11.10;;;;;;;23.59;84.92;98730.92;105554;1256;72946;-87
2023/08/22 02:51:49;;;;;;;10.90;9.90;;;;;;;23.53;84.91;98730.45;105684;1259;73220;-85
2023/08/22 02:54:16;;;;;;;10.70;9.80;;;;;;;23.50;85.11;98734.75;105673;1258;61130;-87
2023/08/22 02:56:43;;;;;;;12.50;11.30;;;;;;;23.46;85.63;98734.61;105686;1255;61003;-86
2023/08/22 02:59:10;;;;;;;24.10;20.10;;;;;;;23.43;86.14;98734.21;105474;1266;71830;-86
2023/08/22 03:01:37;;;;;;;69.00;48.70;;;;;;;23.41;86.31;98739.13;105683;1256;72926;-85
2023/08/22 03:04:04;;;;;;;27.50;24.00;;;;;;;23.41;86.30;98739.75;105702;1256;71133;-87
2023/08/22 03:06:31;;;;;;;16.70;15.10;;;;;;;23.39;86.22;98747.66;105436;1259;61830;-87
2023/08/22 03:08:58;;;;;;;14.80;13.50;;;;;;;23.36;86.21;98751.80;106154;1257;61092;-86
2023/08/22 03:11:26;;;;;;;16.70;14.90;;;;;;;23.35;86.43;98754.68;106419;1254;73517;-86
2023/08/22 03:13:53;;;;;;;17.30;15.50;;;;;;;23.35;86.62;98757.91;105705;1259;73141;-86
2023/08/22 03:16:21;;;;;;;13.80;12.60;;;;;;;23.36;86.59;98750.70;105747;1257;72801;-87
2023/08/22 03:18:48;;;;;;;13.50;12.20;;;;;;;23.36;86.45;98749.13;105687;1259;62987;-85
2023/08/22 03:21:15;;;;;;;11.10;9.90;;;;;;;23.36;86.23;98745.27;105586;1256;61049;-86
2023/08/22 03:23:44;;;;;;;12.30;11.10;;;;;;;23.36;86.06;98743.95;105494;1262;73744;-85
2023/08/22 03:26:13;;;;;;;15.30;11.10;;;;;;;23.33;85.98;98743.56;105692;1254;72305;-86
2023/08/22 03:28:40;;;;;;;12.20;11.00;;;;;;;23.31;86.17;98742.34;105427;1262;72598;-86
2023/08/22 03:31:08;;;;;;;12.30;11.30;;;;;;;23.30;86.19;98745.08;105552;1259;61168;-86
2023/08/22 03:33:35;;;;;;;12.10;11.10;;;;;;;23.27;86.24;98748.45;105517;1259;61249;-87
2023/08/22 03:36:05;;;;;;;12.50;11.20;;;;;;;23.24;86.16;98745.98;105622;1259;73430;-87
2023/08/22 03:38:32;;;;;;;12.60;11.40;;;;;;;23.20;86.29;98744.20;105600;1254;73472;-85
2023/08/22 03:40:59;;;;;;;11.00;10.10;;;;;;;23.16;86.39;98748.48;105666;1257;71640;-87
2023/08/22 03:43:26;;;;;;;11.60;10.30;;;;;;;23.13;86.40;98743.35;105654;1254;61288;-87
2023/08/22 03:45:53;;;;;;;13.80;10.80;;;;;;;23.11;86.43;98742.75;105512;1259;61223;-86
2023/08/22 03:48:20;;;;;;;11.70;10.60;;;;;;;23.07;86.53;98744.34;105655;1259;75060;-87
2023/08/22 03:50:47;;;;;;;10.80;9.90;;;;;;;23.04;86.56;98744.11;105461;1256;73955;-86
2023/08/22 03:53:14;;;;;;;14.00;10.30;;;;;;;23.02;86.48;98743.34;105659;1257;73183;-86
2023/08/22 03:55:43;;;;;;;11.90;10.50;;;;;;;23.00;86.56;98738.98;105657;1259;62946;-86
2023/08/22 03:58:11;;;;;;;12.70;11.20;;;;;;;22.99;86.71;98738.75;105684;1256;61026;-86
2023/08/22 04:00:38;;;;;;;12.40;11.20;;;;;;;22.98;86.89;98739.63;105681;1257;74961;-86
2023/08/22 04:03:05;;;;;;;13.10;11.60;;;;;;;22.97;87.06;98736.98;105799;1258;73232;-86
2023/08/22 04:05:32;;;;;;;12.70;11.20;;;;;;;22.96;87.37;98734.84;106216;1259;71654;-86
2023/08/22 04:08:01;;;;;;;12.30;11.00;;;;;;;22.96;87.44;98742.06;105913;1256;61190;-90
2023/08/22 04:10:28;;;;;;;12.10;11.00;;;;;;;22.96;87.48;98742.14;105694;1259;61176;-86
2023/08/22 04:12:55;;;;;;;12.90;11.60;;;;;;;22.96;87.64;98741.86;105700;1254;74201;-85
2023/08/22 04:15:23;;;;;;;12.10;10.50;;;;;;;22.95;87.78;98744.48;105817;1258;74841;-85
2023/08/22 04:17:50;;;;;;;13.20;11.30;;;;;;;22.95;87.97;98741.00;105943;1254;73482;-86
2023/08/22 04:20:17;;;;;;;13.90;12.00;;;;;;;22.96;88.13;98741.45;106065;1258;61142;-88
2023/08/22 04:22:44;;;;;;;13.30;11.90;;;;;;;22.97;88.24;98738.40;106284;1259;61147;-86
2023/08/22 04:25:12;;;;;;;13.30;11.10;;;;;;;22.99;88.38;98733.25;105723;1259;72009;-86
2023/08/22 04:27:40;;;;;;;11.50;10.30;;;;;;;23.01;88.17;98727.11;105632;1257;74328;-88
2023/08/22 04:30:10;;;;;;;14.30;11.50;;;;;;;23.02;87.74;98725.64;105676;1259;72815;-85
2023/08/22 04:32:37;;;;;;;12.50;11.40;;;;;;;23.02;87.74;98730.15;105606;1258;61181;-87
2023/08/22 04:35:05;;;;;;;12.30;11.20;;;;;;;23.01;87.75;98725.35;105952;1258;61163;-86
2023/08/22 04:37:33;;;;;;;14.70;12.70;;;;;;;23.01;87.85;98723.27;105593;1259;72713;-85
2023/08/22 04:40:01;;;;;;;17.30;12.10;;;;;;;23.02;88.18;98724.29;105443;1264;73505;-85
2023/08/22 04:42:45;;;;;;;13.00;11.60;;;;;;;23.04;88.21;98724.80;105646;1259;70536;-87
2023/08/22 04:45:13;;;;;;;13.90;11.60;;;;;;;23.07;88.26;98723.05;105494;1256;61150;-85
2023/08/22 04:47:41;;;;;;;20.90;10.50;;;;;;;23.10;88.34;98727.14;105563;1259;61165;-85
2023/08/22 04:50:09;;;;;;;15.10;11.90;;;;;;;23.12;88.47;98725.76;105430;1262;75091;-85
2023/08/22 04:52:36;;;;;;;14.60;12.80;;;;;;;23.15;88.46;98726.14;105603;1261;74118;-85
2023/08/22 04:55:04;;;;;;;12.90;11.70;;;;;;;23.18;88.53;98727.69;105491;1258;73511;-86
2023/08/22 04:57:32;;;;;;;13.40;12.00;;;;;;;23.20;88.35;98719.31;105769;1257;61226;-86
2023/08/22 04:59:59;;;;;;;15.20;13.70;;;;;;;23.25;88.42;98721.20;105466;1255;61082;-85
2023/08/22 05:02:28;;;;;;;14.60;12.60;;;;;;;23.28;88.66;98722.41;105581;1260;74584;-86
2023/08/22 05:04:55;;;;;;;14.10;12.70;;;;;;;23.32;88.50;98720.54;105477;1260;73094;-87
2023/08/22 05:07:22;;;;;;;11.30;10.20;;;;;;;23.35;88.72;98729.63;105555;1261;72525;-87
2023/08/22 05:09:49;;;;;;;13.20;11.40;;;;;;;23.39;87.54;98731.94;105654;1254;61053;-86
2023/08/22 05:12:16;;;;;;;11.80;10.60;;;;;;;23.41;87.26;98733.30;105967;1258;61098;-84
2023/08/22 05:14:43;;;;;;;12.10;10.90;;;;;;;23.45;87.71;98731.17;105461;1260;73165;-84
2023/08/22 05:17:11;;;;;;;10.20;9.40;;;;;;;23.50;87.29;98730.42;105716;1259;73460;-87
2023/08/22 05:19:39;;;;;;;13.80;9.80;;;;;;;23.53;85.81;98731.20;106741;1259;73097;-85
2023/08/22 05:22:08;;;;;;;10.30;9.40;;;;;;;23.56;85.08;98734.98;105582;1259;60943;-84
2023/08/22 05:24:36;;;;;;;10.20;9.20;;;;;;;23.61;84.54;98736.52;105595;1261;61060;-85
2023/08/22 05:27:03;;;;;;;10.80;9.70;;;;;;;23.64;84.24;98736.89;105464;1260;73397;-85
2023/08/22 05:29:30;;;;;;;10.00;8.40;;;;;;;23.68;83.97;98743.71;105547;1254;74314;-85
2023/08/22 05:31:57;;;;;;;9.90;9.10;;;;;;;23.72;83.71;98742.44;105427;1261;71206;-85
2023/08/22 05:34:25;;;;;;;10.80;9.40;;;;;;;23.77;83.18;98737.89;105566;1259;61142;-84
2023/08/22 05:36:52;;;;;;;13.20;9.30;;;;;;;23.81;82.54;98736.61;105451;1255;61145;-85
2023/08/22 05:39:19;;;;;;;10.20;9.10;;;;;;;23.85;82.02;98740.25;105612;1259;73633;-85
2023/08/22 05:41:46;;;;;;;10.60;9.60;;;;;;;23.88;81.64;98743.90;105640;1258;74220;-85
2023/08/22 05:44:13;;;;;;;9.60;8.70;;;;;;;23.90;81.15;98744.94;105748;1258;72564;-86
2023/08/22 05:46:42;;;;;;;10.00;9.10;;;;;;;23.91;80.94;98746.52;105687;1260;61186;-86
2023/08/22 05:49:09;;;;;;;9.70;8.80;;;;;;;23.92;80.43;98742.23;106133;1259;61112;-89
2023/08/22 05:51:37;;;;;;;9.90;8.90;;;;;;;23.93;80.26;98744.29;105773;1254;73627;-88
2023/08/22 05:54:04;;;;;;;10.40;9.00;;;;;;;23.94;79.49;98752.95;105681;1258;74618;-87
2023/08/22 05:56:32;;;;;;;10.70;9.70;;;;;;;23.95;79.48;98756.77;105806;1259;73777;-88
2023/08/22 05:58:59;;;;;;;9.90;8.90;;;;;;;23.97;79.85;98760.56;105676;1253;63703;-86
2023/08/22 06:01:26;;;;;;;9.30;8.30;;;;;;;24.00;80.24;98758.33;106149;1259;61321;-85
2023/08/22 06:03:54;;;;;;;10.70;9.70;;;;;;;24.04;79.95;98759.71;106742;1253;72342;-85
2023/08/22 06:06:21;;;;;;;12.70;9.60;;;;;;;24.07;79.52;98757.33;106295;1257;75497;-89
2023/08/22 06:08:49;;;;;;;9.40;8.60;;;;;;;24.10;79.48;98760.41;105917;1259;71440;-90
2023/08/22 06:11:16;;;;;;;11.40;8.80;;;;;;;24.14;79.05;98761.10;105726;1257;61180;-86
2023/08/22 06:13:45;;;;;;;10.80;9.10;;;;;;;24.16;78.74;98764.23;105760;1254;61087;-87
2023/08/22 06:16:13;;;;;;;9.20;8.40;;;;;;;24.21;78.18;98762.14;105785;1254;73486;-85
2023/08/22 06:18:40;;;;;;;10.30;9.30;;;;;;;24.25;78.05;98761.11;105440;1254;73224;-86
2023/08/22 06:21:07;;;;;;;19.50;10.30;;;;;;;24.28;78.15;98758.09;105770;1255;71460;-86
2023/08/22 06:23:34;;;;;;;9.40;8.50;;;;;;;24.32;77.79;98751.23;105660;1260;61196;-89
2023/08/22 06:26:01;;;;;;;10.20;9.40;;;;;;;24.36;76.74;98753.57;106012;1259;61160;-86
2023/08/22 06:28:29;;;;;;;9.70;8.80;;;;;;;24.39;76.52;98751.73;105786;1254;74097;-85
2023/08/22 06:31:03;;;;;;;12.00;10.90;;;;;;;24.42;76.22;98752.39;106049;1255;74142;-86
2023/08/22 06:33:32;;;;;;;9.90;9.20;;;;;;;24.45;75.54;98752.58;105796;1257;74356;-90
2023/08/22 06:35:59;;;;;;;9.00;8.20;;;;;;;24.49;74.97;98753.39;105909;1258;61636;-86
2023/08/22 06:38:26;;;;;;;9.40;7.60;;;;;;;24.53;74.67;98755.65;105780;1255;60944;-89
2023/08/22 06:40:53;;;;;;;8.70;7.90;;;;;;;24.58;73.85;98756.69;105853;1256;72730;-88
2023/08/22 06:43:23;;;;;;;12.30;8.70;;;;;;;24.63;73.59;98756.35;105915;1259;74123;-89
2023/08/22 06:45:57;;;;;;;8.60;7.60;;;;;;;24.66;73.25;98752.80;106323;1254;71749;-88
2023/08/22 06:48:29;;;;;;;8.70;7.80;;;;;;;24.70;72.75;98752.67;106908;1254;61155;-91
2023/08/22 06:51:09;;;;;;;9.90;8.30;;;;;;;24.76;71.80;98746.50;108355;1254;60658;-89
2023/08/22 06:53:36;;;;;;;8.30;7.60;;;;;;;24.81;71.13;98750.48;106243;1255;75710;-88
2023/08/22 06:56:04;;;;;;;8.90;8.10;;;;;;;24.83;70.90;98749.58;106259;1260;73318;-88
2023/08/22 06:58:31;;;;;;;13.00;8.00;;;;;;;24.86;70.49;98743.06;108064;1254;71100;-85
2023/08/22 07:00:59;;;;;;;9.10;8.30;;;;;;;24.89;70.70;98744.84;109186;1254;60310;-86
2023/08/22 07:03:26;;;;;;;8.80;8.00;;;;;;;24.93;70.63;98743.29;109306;1253;59025;-87
2023/08/22 07:05:53;;;;;;;9.50;8.50;;;;;;;24.98;70.94;98747.31;109458;1254;72545;-87
2023/08/22 07:08:20;;;;;;;9.40;8.40;;;;;;;25.02;71.06;98751.99;109392;1254;72930;-87
2023/08/22 07:10:47;;;;;;;9.30;8.10;;;;;;;25.08;70.89;98752.13;109346;1253;71889;-85
2023/08/22 07:13:16;;;;;;;9.10;8.30;;;;;;;25.12;70.69;98750.85;109333;1254;59065;-85
2023/08/22 07:15:46;;;;;;;9.20;8.10;;;;;;;25.15;70.85;98755.02;108661;1254;60609;-88
2023/08/22 07:18:13;;;;;;;10.20;9.30;;;;;;;25.20;70.50;98753.88;107848;1254;73367;-87
2023/08/22 07:20:42;;;;;;;10.10;9.10;;;;;;;25.26;70.43;98751.45;107101;1254;73062;-86
2023/08/22 07:23:09;;;;;;;15.30;8.30;;;;;;;25.33;70.40;98751.23;107243;1255;72786;-86
2023/08/22 07:25:37;;;;;;;8.40;7.60;;;;;;;25.40;70.51;98751.02;107675;1257;61154;-86
2023/08/22 07:28:04;;;;;;;10.20;8.30;;;;;;;25.48;69.77;98750.42;107372;1253;61924;-86
2023/08/22 07:30:34;;;;;;;12.30;8.40;;;;;;;25.54;69.31;98744.25;107898;1254;73812;-87
2023/08/22 07:33:01;;;;;;;8.10;7.40;;;;;;;25.61;69.01;98746.52;107719;1257;75228;-86
2023/08/22 07:35:29;;;;;;;8.50;7.60;;;;;;;25.68;68.32;98744.08;107522;1255;71745;-88
2023/08/22 07:37:57;;;;;;;9.40;7.90;;;;;;;25.73;68.22;98739.95;106421;1254;60999;-87
2023/08/22 07:40:24;;;;;;;7.60;7.00;;;;;;;25.78;68.02;98742.21;105793;1259;61234;-84
2023/08/22 07:42:51;;;;;;;12.40;7.90;;;;;;;25.82;67.38;98735.09;105917;1257;73520;-88
2023/08/22 07:45:19;;;;;;;9.50;8.00;;;;;;;25.85;67.05;98733.59;106399;1258;74301;-88
2023/08/22 07:47:46;;;;;;;9.50;8.10;;;;;;;25.88;66.57;98732.10;106713;1254;71838;-89
2023/08/22 07:50:17;;;;;;;8.10;7.40;;;;;;;25.93;66.82;98732.23;106254;1259;61260;-89
2023/08/22 07:52:44;;;;;;;11.10;7.30;;;;;;;25.97;66.64;98725.17;106406;1254;61222;-87
2023/08/22 07:55:16;;;;;;;6.80;6.20;;;;;;;26.02;66.95;98718.04;106305;1254;73805;-87
2023/08/22 07:57:43;;;;;;;7.30;6.30;;;;;;;26.09;66.97;98716.58;106704;1254;73147;-87
2023/08/22 08:00:13;;;;;;;8.00;7.30;;;;;;;26.14;66.20;98709.89;106815;1257;71943;-92
2023/08/22 08:02:52;;;;;;;9.20;7.10;;;;;;;26.20;65.47;98714.03;106617;1255;61125;-89
2023/08/22 08:05:20;;;;;;;8.50;7.70;;;;;;;26.25;65.03;98719.46;106712;1254;61183;-90
2023/08/22 08:07:47;;;;;;;7.20;6.60;;;;;;;26.31;64.87;98725.73;106679;1254;72897;-88
2023/08/22 08:10:15;;;;;;;8.90;8.10;;;;;;;26.36;64.14;98726.52;106551;1257;74690;-90
2023/08/22 08:12:42;;;;;;;8.70;7.90;;;;;;;26.41;64.29;98727.36;106393;1254;71487;-91
2023/08/22 08:15:10;;;;;;;10.60;7.60;;;;;;;26.46;63.49;98728.04;106371;1254;61064;-90
2023/08/22 08:17:40;;;;;;;7.50;6.80;;;;;;;26.50;63.17;98726.75;106818;1254;61124;-90
2023/08/22 08:20:10;;;;;;;9.10;6.20;;;;;;;26.55;62.70;98724.45;106906;1254;72510;-88
2023/08/22 08:22:38;;;;;;;7.70;7.10;;;;;;;26.60;62.76;98722.45;106665;1254;74395;-89
2023/08/22 08:25:05;;;;;;;7.80;7.20;;;;;;;26.66;63.59;98724.64;106161;1259;72468;-89
2023/08/22 08:27:33;;;;;;;6.70;6.10;;;;;;;26.74;63.56;98724.39;106511;1254;61135;-89
2023/08/22 08:30:03;;;;;;;7.50;6.90;;;;;;;26.81;62.82;98725.07;107025;1254;61653;-88
2023/08/22 08:32:32;;;;;;;6.70;6.20;;;;;;;26.89;62.47;98722.77;106866;1254;74153;-88
2023/08/22 08:34:59;;;;;;;7.30;6.70;;;;;;;26.95;62.22;98724.77;106916;1257;74148;-87
2023/08/22 08:37:28;;;;;;;7.50;6.90;;;;;;;27.02;61.82;98724.45;106829;1254;71227;-88
2023/08/22 08:39:55;;;;;;;6.70;6.00;;;;;;;27.10;60.61;98726.56;106924;1255;61177;-91
2023/08/22 08:42:22;;;;;;;7.80;7.10;;;;;;;27.17;59.33;98728.89;106645;1259;60982;-89
2023/08/22 08:44:50;;;;;;;9.40;7.50;;;;;;;27.24;59.56;98727.95;106806;1252;72844;-89
2023/08/22 08:47:17;;;;;;;14.90;6.60;;;;;;;27.31;59.64;98728.02;105830;1258;74321;-88
2023/08/22 08:49:44;;;;;;;7.50;6.00;;;;;;;27.37;59.88;98725.69;106147;1254;71419;-89
2023/08/22 08:52:15;;;;;;;7.30;6.60;;;;;;;27.45;60.21;98726.52;105973;1254;61256;-89
2023/08/22 08:54:45;;;;;;;6.70;6.10;;;;;;;27.54;59.59;98724.55;106038;1254;61174;-88
2023/08/22 08:57:14;;;;;;;13.90;6.60;;;;;;;27.64;57.68;98727.11;105914;1253;73884;-90
2023/08/22 08:59:41;;;;;;;6.40;5.40;;;;;;;27.72;58.04;98727.56;105562;1258;72819;-89
2023/08/22 09:02:11;;;;;;;6.70;5.70;;;;;;;27.81;58.01;98722.35;105839;1257;72845;-88
2023/08/22 09:04:39;;;;;;;6.40;5.80;;;;;;;27.90;57.72;98725.94;106704;1254;61013;-87
2023/08/22 09:07:09;;;;;;;6.20;5.10;;;;;;;27.98;55.77;98727.80;106487;1254;61237;-88
2023/08/22 09:09:37;;;;;;;8.60;5.40;;;;;;;28.04;54.84;98722.57;106055;1254;74495;-88
2023/08/22 09:12:08;;;;;;;7.70;5.60;;;;;;;28.10;54.75;98717.65;105819;1261;74877;-88
2023/08/22 09:14:48;;;;;;;6.40;5.90;;;;;;;28.17;54.94;98713.36;106061;1257;72306;-91
2023/08/22 09:17:18;;;;;;;5.90;5.40;;;;;;;28.25;54.78;98709.91;106387;1257;61155;-90
2023/08/22 09:19:56;;;;;;;6.30;5.70;;;;;;;28.33;54.15;98708.59;106225;1257;61167;-94
2023/08/22 09:22:30;;;;;;;9.50;5.70;;;;;;;28.40;53.23;98705.23;106006;1254;75209;-91
2023/08/22 09:24:57;;;;;;;6.50;5.30;;;;;;;28.46;52.86;98702.92;105963;1254;74077;-90
2023/08/22 09:27:53;;;;;;;6.30;5.10;;;;;;;28.53;52.73;98705.29;106244;1254;72579;-92
2023/08/22 09:30:24;;;;;;;6.20;5.10;;;;;;;28.62;52.44;98701.98;106172;1255;61035;-92
2023/08/22 09:32:59;;;;;;;5.30;4.90;;;;;;;28.72;51.80;98704.09;106264;1254;62280;-89
2023/08/22 09:35:33;;;;;;;4.60;4.20;;;;;;;28.83;51.45;98704.11;106269;1254;75026;-92
2023/08/22 09:38:07;;;;;;;5.40;4.30;;;;;;;28.93;51.35;98701.55;106267;1254;72996;-92
2023/08/22 09:40:35;;;;;;;5.20;4.20;;;;;;;29.02;50.69;98701.48;106212;1257;73156;-92
2023/08/22 09:43:02;;;;;;;5.60;5.00;;;;;;;29.09;50.84;98705.17;105636;1254;61036;-90
2023/08/22 09:45:31;;;;;;;6.90;5.60;;;;;;;29.16;50.89;98707.85;105822;1257;61233;-90
2023/08/22 09:47:59;;;;;;;5.30;4.80;;;;;;;29.21;49.68;98703.73;105836;1254;72637;-89
2023/08/22 09:50:28;;;;;;;7.20;4.60;;;;;;;29.22;49.40;98703.00;106347;1254;73998;-89
2023/08/22 09:52:59;;;;;;;6.00;5.40;;;;;;;29.23;49.47;98701.85;107031;1254;72282;-88
2023/08/22 09:55:28;;;;;;;6.10;4.90;;;;;;;29.23;49.72;98701.46;106216;1260;61104;-87
2023/08/22 09:57:55;;;;;;;6.00;5.40;;;;;;;29.25;49.74;98700.39;105904;1253;61120;-88
2023/08/22 10:00:26;;;;;;;5.10;4.60;;;;;;;29.28;50.05;98701.49;105670;1254;72525;-88
2023/08/22 10:02:54;;;;;;;5.30;4.90;;;;;;;29.33;49.61;98700.88;105749;1254;74722;-91
2023/08/22 10:05:21;;;;;;;13.70;5.20;;;;;;;29.37;48.93;98696.77;106264;1253;72861;-91
2023/08/22 10:07:54;;;;;;;7.40;5.20;;;;;;;29.41;49.41;98694.90;107162;1253;61049;-90
2023/08/22 10:10:23;;;;;;;5.90;5.50;;;;;;;29.45;48.93;98693.40;105775;1254;61120;-89
2023/08/22 10:12:51;;;;;;;6.80;5.10;;;;;;;29.51;48.83;98691.90;105541;1260;73747;-89
2023/08/22 10:15:18;;;;;;;5.90;5.40;;;;;;;29.62;49.20;98694.15;105721;1259;75727;-89
2023/08/22 10:17:45;;;;;;;5.90;5.30;;;;;;;29.70;48.90;98691.06;105688;1259;72745;-90
2023/08/22 10:20:15;;;;;;;6.60;5.10;;;;;;;29.76;48.93;98688.77;105720;1254;61180;-91
2023/08/22 10:22:43;;;;;;;7.50;6.80;;;;;;;29.88;48.27;98686.84;105923;1256;61151;-89
2023/08/22 10:25:10;;;;;;;7.00;4.90;;;;;;;30.01;47.97;98681.88;106154;1257;72407;-88
2023/08/22 10:27:40;;;;;;;8.40;5.40;;;;;;;30.15;48.22;98677.25;106350;1256;74548;-87
2023/08/22 10:30:14;;;;;;;7.70;5.00;;;;;;;30.31;47.94;98677.66;106187;1253;71120;-89
2023/08/22 10:32:41;;;;;;;6.10;5.50;;;;;;;30.41;46.80;98673.70;106040;1252;61045;-86
2023/08/22 10:35:14;;;;;;;6.40;5.80;;;;;;;30.50;46.92;98665.77;106349;1253;61093;-87
2023/08/22 10:37:49;;;;;;;;;;;;;;;30.58;46.81;98668.63;105555;1253;72728;-89
2023/08/22 10:40:20;;;;;;;11.60;10.60;;;;;;;30.59;46.58;98667.93;105868;1254;74330;-90
2023/08/22 10:42:52;;;;;;;6.50;5.90;;;;;;;30.59;46.70;98668.70;106159;1256;72332;-91
2023/08/22 10:45:19;;;;;;;6.40;5.70;;;;;;;30.60;46.92;98669.29;106896;1254;60294;-88
2023/08/22 10:48:04;;;;;;;7.30;5.80;;;;;;;30.63;47.14;98668.48;106268;1253;61196;-88
2023/08/22 10:50:34;;;;;;;5.60;5.20;;;;;;;30.70;47.00;98668.15;106692;1253;74174;-88
2023/08/22 10:53:21;;;;;;;5.20;4.80;;;;;;;30.75;46.52;98668.14;106467;1253;306051;-91
2023/08/22 10:55:49;;;;;;;7.30;6.10;;;;;;;30.83;46.17;98674.14;105721;1257;72320;-90
2023/08/22 10:58:36;;;;;;;7.40;5.30;;;;;;;30.88;46.15;98670.29;105765;1254;61186;-89
2023/08/22 11:01:07;;;;;;;5.80;5.00;;;;;;;30.97;45.90;98674.67;106053;1252;61022;-88
2023/08/22 11:03:34;;;;;;;5.20;4.80;;;;;;;31.04;45.75;98673.67;106286;1259;72939;-88
2023/08/22 11:06:13;;;;;;;9.50;5.70;;;;;;;31.12;45.20;98676.67;105826;1258;73001;-88
2023/08/22 11:08:42;;;;;;;5.00;4.60;;;;;;;31.20;43.04;98678.96;105782;1254;72277;-89
2023/08/22 11:11:16;;;;;;;5.10;4.60;;;;;;;31.24;42.61;98669.70;105975;1253;61808;-88
2023/08/22 11:14:05;;;;;;;6.60;5.40;;;;;;;31.34;43.35;98667.55;106251;1253;61097;-88
2023/08/22 11:16:33;;;;;;;6.70;5.80;;;;;;;31.51;43.46;98658.14;106253;1257;72107;-89
2023/08/22 11:19:03;;;;;;;4.80;4.40;;;;;;;31.71;43.71;98660.33;106608;1256;73195;-90
2023/08/22 11:21:40;;;;;;;5.90;4.00;;;;;;;31.89;43.10;98660.46;106549;1253;72664;-88
2023/08/22 11:24:17;;;;;;;6.20;4.50;;;;;;;32.11;42.11;98657.14;106314;1257;61294;-88